Etusivu
METAR-TAF:

METAR-TAF

Lentoasemat :

Pago Pago, Yhdysvaltain pienet erillissaaret

Leveyspiiri: 14-20S, Pituuspiiri: 170-43W, korkeus merenpinnasta: 3 m

Tämänhetkinen sää

Tämä raportti tehtiin 1 tunti ja 4 minuuttia sitten, kello 01.50 UTC
Tuuli 3 kn eri suunnista
Lämpötila 32°C
Kosteus 75%
Ilmanpaine 1008 hPa
Näkyvyys: 19.3 km
Hajanaisia pilviä 2000 ft:n korkeudessa
Hajonneita pilviä 4000 ft:n korkeudessa

METAR: NSTU 250150Z VRB03KT 12SM SCT020 BKN040 32/27 A2976 RMK SLP078 T03150269

Aika: 15:54 (02:54 UTC)

Sääennuste

Tämä raportti tehtiin 3 tuntia ja 31 minuuttia sitten, kello 23.23 UTC
Ennuste voimassa 25. päivästä klo 00 UTC - 25. päivään klo 24 UTC
Tuuli 6 kn eri suunnista
Näkyvyys: 10 km
Muutamia pilviä 2000 ft:n korkeudessa
Hajanaisia pilviä 4000 ft:n korkeudessa
Hajonneita pilviä 10000 ft:n korkeudessa
sadekuuroja näköpiirissä,

TAF: NSTU 242323Z 2500/2524 VRB06KT P6SM VCSH FEW020 SCT040 BKN100

Säähavainnot ja -ennusteet yli 4000 lentoasemalta (METAR- ja TAF-raportit).

Käytössä olevat sääasemat on merkitty karttaan keltaisilla ja punaisilla pisteillä.

Aseta hiiri pisteen päälle nähdäksesi sääaseman nimen.

Klikkaa sitten nähdäksesi säähavainnot ja -ennusteet.

Kartan vaihtaminen: klikkaa mustalla rastilla varustettuja vihreitä pisteitä, niin voit zoomata sisään; viivalla varustettua vihreää pistettä, niin voit zoomata ulos tai vihreitä nuolia, niin pääset viereisille kartoille.


METAR-TAF: